createdAt,value
2022-09-20T00:01:22.167Z,40.60
2022-09-20T00:03:54.433Z,40.42
2022-09-20T00:06:25.998Z,40.15
2022-09-20T00:08:54.480Z,40.53
2022-09-20T00:11:24.751Z,40.50
2022-09-20T00:13:56.254Z,40.58
2022-09-20T00:16:27.714Z,40.22
2022-09-20T00:18:58.569Z,40.59
2022-09-20T00:21:28.858Z,40.37
2022-09-20T00:23:58.096Z,40.45
2022-09-20T00:26:26.787Z,40.54
2022-09-20T00:28:54.943Z,40.38
2022-09-20T00:31:22.990Z,40.57
2022-09-20T00:34:08.380Z,40.57
2022-09-20T00:36:37.660Z,40.42
2022-09-20T00:39:05.532Z,40.33
2022-09-20T00:41:34.505Z,40.83
2022-09-20T00:44:03.971Z,40.44
2022-09-20T00:46:38.010Z,40.57
2022-09-20T00:49:12.292Z,40.73
2022-09-20T00:51:46.240Z,40.58
2022-09-20T00:54:20.079Z,40.79
2022-09-20T00:56:49.684Z,40.58
2022-09-20T00:59:22.559Z,40.82
2022-09-20T01:01:55.194Z,40.62
2022-09-20T01:04:28.100Z,40.82
2022-09-20T01:07:03.333Z,40.60
2022-09-20T01:09:31.255Z,40.94
2022-09-20T01:12:02.698Z,40.77
2022-09-20T01:14:30.819Z,40.68
2022-09-20T01:17:03.881Z,40.56
2022-09-20T01:19:41.122Z,40.49
2022-09-20T01:22:20.248Z,40.70
2022-09-20T01:24:56.495Z,40.85
2022-09-20T01:27:36.897Z,40.55
2022-09-20T01:30:08.180Z,40.58
2022-09-20T01:32:50.896Z,40.45
2022-09-20T01:35:22.078Z,40.77
2022-09-20T01:38:06.678Z,40.43
2022-09-20T01:40:44.986Z,40.66
2022-09-20T01:43:22.933Z,40.66
2022-09-20T01:45:51.409Z,40.45
2022-09-20T01:48:31.646Z,40.31
2022-09-20T01:51:28.508Z,40.41
2022-09-20T01:54:16.353Z,40.29
2022-09-20T01:57:12.480Z,40.23
2022-09-20T02:00:02.920Z,40.22
2022-09-20T02:02:49.741Z,40.35
2022-09-20T02:05:46.816Z,40.40
2022-09-20T02:08:47.237Z,40.33
2022-09-20T02:11:18.263Z,40.61
2022-09-20T02:14:02.563Z,40.62
2022-09-20T02:16:44.363Z,40.35
2022-09-20T02:19:37.511Z,40.15
2022-09-20T02:22:16.276Z,40.21
2022-09-20T02:24:51.906Z,40.42
2022-09-20T02:27:27.177Z,40.47
2022-09-20T02:30:10.359Z,40.00
2022-09-20T02:32:56.893Z,40.51
2022-09-20T02:35:36.801Z,40.53
2022-09-20T02:38:18.156Z,40.33
2022-09-20T02:40:57.684Z,40.50
2022-09-20T02:43:32.355Z,40.29
2022-09-20T02:46:07.793Z,40.17
2022-09-20T02:48:45.491Z,40.28
2022-09-20T02:51:23.531Z,40.31
2022-09-20T02:54:02.796Z,40.46
2022-09-20T02:56:38.981Z,40.53
2022-09-20T02:59:21.281Z,40.38
2022-09-20T03:01:57.429Z,40.44
2022-09-20T03:04:39.004Z,40.21
2022-09-20T03:07:13.796Z,40.38
2022-09-20T03:09:49.165Z,40.44
2022-09-20T03:12:28.357Z,40.13
2022-09-20T03:15:01.570Z,40.13
2022-09-20T03:17:42.458Z,40.44
2022-09-20T03:20:25.936Z,40.54
2022-09-20T03:23:02.146Z,40.33
2022-09-20T03:25:51.257Z,40.21
2022-09-20T03:28:34.508Z,40.34
2022-09-20T03:31:12.605Z,40.36
2022-09-20T03:33:51.089Z,40.44
2022-09-20T03:36:38.121Z,40.37
2022-09-20T03:39:26.543Z,40.24
2022-09-20T03:42:16.443Z,40.17
2022-09-20T03:45:16.382Z,40.59
2022-09-20T03:48:04.997Z,40.20
2022-09-20T03:50:46.193Z,40.49
2022-09-20T03:53:34.961Z,40.15
2022-09-20T03:56:48.145Z,40.37
2022-09-20T03:59:30.884Z,40.40
2022-09-20T04:02:15.640Z,40.59
2022-09-20T04:04:52.820Z,40.47
2022-09-20T04:07:27.080Z,40.78
2022-09-20T04:10:18.979Z,40.79
2022-09-20T04:13:01.520Z,40.49
2022-09-20T04:15:40.298Z,40.54
2022-09-20T04:18:19.412Z,40.68
2022-09-20T04:20:52.089Z,40.97
2022-09-20T04:23:32.184Z,40.68
2022-09-20T04:26:03.445Z,40.80
2022-09-20T04:28:38.597Z,40.79
2022-09-20T04:31:29.144Z,40.80
2022-09-20T04:33:59.513Z,40.70
2022-09-20T04:36:38.412Z,40.85
2022-09-20T04:39:19.815Z,40.57
2022-09-20T04:42:23.253Z,40.80
2022-09-20T04:45:16.692Z,40.87
2022-09-20T04:48:28.937Z,40.73
2022-09-20T04:51:32.976Z,40.71
2022-09-20T04:54:27.064Z,40.90
2022-09-20T04:57:15.303Z,40.58
2022-09-20T05:00:02.632Z,40.79
2022-09-20T05:03:00.177Z,40.70
2022-09-20T05:05:51.366Z,40.36
2022-09-20T05:08:59.568Z,40.33
2022-09-20T05:11:58.414Z,40.35
2022-09-20T05:14:49.665Z,40.48
2022-09-20T05:17:30.464Z,40.47
2022-09-20T05:20:24.241Z,39.92
2022-09-20T05:23:14.568Z,40.21
2022-09-20T05:26:06.324Z,40.07
2022-09-20T05:28:42.216Z,40.23
2022-09-20T05:31:17.510Z,40.00
2022-09-20T05:33:59.533Z,39.90
2022-09-20T05:36:37.635Z,40.10
2022-09-20T05:39:22.515Z,40.22
2022-09-20T05:41:57.946Z,40.20
2022-09-20T05:44:32.630Z,39.70
2022-09-20T05:47:18.041Z,40.11
2022-09-20T05:49:56.808Z,40.03
2022-09-20T05:52:37.963Z,39.97
2022-09-20T05:55:19.081Z,39.81
2022-09-20T05:58:01.735Z,39.71
2022-09-20T06:00:34.449Z,40.06
2022-09-20T06:03:11.068Z,39.88
2022-09-20T06:05:50.896Z,39.77
2022-09-20T06:08:40.071Z,40.02
2022-09-20T06:11:24.572Z,39.61
2022-09-20T06:14:07.028Z,39.64
2022-09-20T06:16:44.091Z,39.62
2022-09-20T06:19:23.374Z,39.64
2022-09-20T06:21:53.752Z,39.79
2022-09-20T06:24:37.425Z,39.77
2022-09-20T06:27:11.804Z,39.79
2022-09-20T06:29:45.831Z,39.61
2022-09-20T06:32:17.852Z,39.63
2022-09-20T06:34:48.728Z,39.85
2022-09-20T06:37:53.027Z,39.47
2022-09-20T06:40:55.096Z,39.47
2022-09-20T06:43:22.964Z,39.57
2022-09-20T06:45:50.942Z,39.71
2022-09-20T06:48:19.275Z,39.80
2022-09-20T06:50:48.645Z,39.60
2022-09-20T06:53:18.891Z,39.60
2022-09-20T06:55:47.838Z,39.35
2022-09-20T06:58:15.744Z,39.30
2022-09-20T07:00:43.693Z,39.65
2022-09-20T07:03:13.038Z,39.47
2022-09-20T07:05:41.233Z,39.44
2022-09-20T07:08:10.556Z,39.28
2022-09-20T07:10:38.831Z,39.04
2022-09-20T07:13:06.836Z,39.13
2022-09-20T07:15:35.900Z,39.02
2022-09-20T07:18:03.755Z,39.15
2022-09-20T07:20:31.637Z,39.09
2022-09-20T07:22:59.523Z,39.27
2022-09-20T07:25:28.766Z,38.96
2022-09-20T07:27:57.377Z,39.05
2022-09-20T07:30:25.364Z,39.21
2022-09-20T07:32:53.666Z,38.85
2022-09-20T07:35:21.536Z,39.21
2022-09-20T07:37:49.403Z,38.72
2022-09-20T07:40:17.414Z,38.56
2022-09-20T07:42:46.665Z,38.43
2022-09-20T07:45:14.587Z,39.38
2022-09-20T07:47:44.883Z,40.40
2022-09-20T07:50:12.997Z,41.11
2022-09-20T07:52:40.836Z,41.53
2022-09-20T07:55:09.738Z,42.10
2022-09-20T07:57:38.944Z,41.65
2022-09-20T08:00:10.182Z,41.16
2022-09-20T08:02:41.115Z,41.57
2022-09-20T08:05:09.729Z,41.11
2022-09-20T08:07:38.594Z,40.50
2022-09-20T08:10:07.734Z,40.45
2022-09-20T08:15:25.142Z,40.32
2022-09-20T08:17:53.018Z,39.88
2022-09-20T08:20:20.888Z,39.79
2022-09-20T08:23:06.378Z,39.21
2022-09-20T08:25:38.378Z,39.16
2022-09-20T08:28:06.228Z,39.00
2022-09-20T08:30:35.478Z,38.75
2022-09-20T08:33:06.939Z,38.42
2022-09-20T08:35:38.157Z,38.16
2022-09-20T08:40:59.081Z,37.99
2022-09-20T08:43:30.948Z,37.48
2022-09-20T08:46:05.389Z,37.25
2022-09-20T08:48:35.162Z,37.22
2022-09-20T08:51:05.896Z,37.45
2022-09-20T08:53:34.979Z,38.94
2022-09-20T08:56:04.700Z,39.09
2022-09-20T08:58:32.709Z,39.00
2022-09-20T09:01:02.380Z,38.79
2022-09-20T09:03:30.337Z,38.55
2022-09-20T09:05:58.855Z,38.03
2022-09-20T09:08:30.969Z,38.36
2022-09-20T09:11:04.781Z,38.23
2022-09-20T09:13:38.111Z,38.01
2022-09-20T09:16:14.885Z,37.40
2022-09-20T09:18:45.966Z,37.26
2022-09-20T09:21:20.299Z,36.93
2022-09-20T09:23:53.644Z,36.77
2022-09-20T09:26:23.981Z,36.78
2022-09-20T09:29:17.588Z,36.61
2022-09-20T09:31:49.198Z,36.65
2022-09-20T09:34:28.858Z,36.54
2022-09-20T09:36:57.648Z,36.58
2022-09-20T09:39:28.665Z,36.31
2022-09-20T09:42:01.141Z,36.29
2022-09-20T09:44:32.785Z,36.06
2022-09-20T09:47:02.691Z,35.96
2022-09-20T09:49:36.114Z,35.79
2022-09-20T09:52:11.959Z,35.78
2022-09-20T09:54:42.217Z,35.63
2022-09-20T09:57:33.785Z,35.67
2022-09-20T10:00:18.406Z,35.85
2022-09-20T10:03:08.878Z,35.78
2022-09-20T10:05:45.332Z,35.61
2022-09-20T10:08:24.639Z,35.68
2022-09-20T10:11:07.101Z,35.61
2022-09-20T10:13:43.280Z,35.57
2022-09-20T10:16:22.539Z,35.92
2022-09-20T10:19:00.636Z,35.84
2022-09-20T10:21:43.597Z,36.25
2022-09-20T10:24:22.620Z,36.44
2022-09-20T10:27:23.505Z,36.52
2022-09-20T10:30:04.242Z,36.52
2022-09-20T10:32:45.901Z,36.24
2022-09-20T10:35:25.703Z,36.15
2022-09-20T10:38:12.776Z,36.22
2022-09-20T10:41:09.511Z,36.17
2022-09-20T10:43:52.912Z,36.20
2022-09-20T10:46:33.326Z,35.99
2022-09-20T10:49:11.868Z,35.82
2022-09-20T10:51:53.138Z,35.97
2022-09-20T10:54:35.403Z,35.71
2022-09-20T10:57:21.963Z,35.79
2022-09-20T10:59:59.712Z,35.54
2022-09-20T11:02:46.230Z,35.46
2022-09-20T11:05:25.245Z,35.56
2022-09-20T11:08:04.340Z,35.28
2022-09-20T11:10:38.021Z,35.36
2022-09-20T11:13:14.125Z,35.24
2022-09-20T11:15:47.078Z,35.09
2022-09-20T11:18:23.448Z,35.19
2022-09-20T11:20:59.563Z,35.38
2022-09-20T11:23:40.756Z,35.10
2022-09-20T11:26:12.942Z,35.14
2022-09-20T11:28:43.769Z,35.26
2022-09-20T11:31:20.623Z,35.12
2022-09-20T11:33:53.374Z,35.33
2022-09-20T11:36:26.175Z,34.93
2022-09-20T11:38:59.492Z,35.06
2022-09-20T11:41:29.187Z,35.20
2022-09-20T11:44:00.454Z,35.52
2022-09-20T11:46:32.714Z,35.29
2022-09-20T11:49:04.180Z,35.43
2022-09-20T11:52:14.386Z,35.30
2022-09-20T11:55:18.887Z,35.20
2022-09-20T11:57:47.368Z,35.48
2022-09-20T12:00:17.766Z,35.31
2022-09-20T12:02:49.548Z,35.04
2022-09-20T12:05:33.956Z,35.13
2022-09-20T12:08:04.449Z,35.58
2022-09-20T12:10:35.784Z,35.49
2022-09-20T12:13:06.847Z,35.53
2022-09-20T12:15:37.008Z,35.61
2022-09-20T12:18:47.245Z,35.41
2022-09-20T12:21:18.000Z,35.54
2022-09-20T12:24:02.961Z,35.40
2022-09-20T12:26:43.501Z,35.45
2022-09-20T12:29:53.335Z,35.40
2022-09-20T12:32:53.260Z,35.56
2022-09-20T12:36:00.629Z,35.64
2022-09-20T12:38:52.591Z,35.42
2022-09-20T12:41:28.166Z,35.28
2022-09-20T12:44:32.843Z,35.21
2022-09-20T12:47:03.234Z,35.39
2022-09-20T12:49:58.449Z,35.13
2022-09-20T12:52:48.318Z,34.99
2022-09-20T12:55:31.590Z,35.00
2022-09-20T12:58:03.072Z,34.99
2022-09-20T13:00:39.010Z,35.09
2022-09-20T13:03:23.896Z,35.01
2022-09-20T13:06:12.473Z,34.79
2022-09-20T13:08:44.154Z,34.61
2022-09-20T13:11:17.459Z,34.49
2022-09-20T13:13:50.232Z,34.02
2022-09-20T13:16:23.530Z,34.19
2022-09-20T13:19:00.249Z,34.04
2022-09-20T13:21:28.826Z,34.13
2022-09-20T13:23:57.845Z,33.76
2022-09-20T13:26:30.075Z,33.51
2022-09-20T13:28:59.491Z,33.44
2022-09-20T13:31:35.067Z,33.18
2022-09-20T13:34:21.393Z,33.22
2022-09-20T13:36:56.005Z,33.27
2022-09-20T13:39:29.266Z,32.97
2022-09-20T13:42:03.224Z,33.05
2022-09-20T13:44:34.507Z,32.87
2022-09-20T13:47:22.566Z,32.98
2022-09-20T13:49:50.920Z,32.93
2022-09-20T13:52:25.799Z,32.92
2022-09-20T13:54:55.121Z,33.14
2022-09-20T13:57:26.960Z,33.00
2022-09-20T13:59:57.771Z,32.95
2022-09-20T14:02:30.688Z,33.07
2022-09-20T14:05:01.578Z,33.06
2022-09-20T14:07:31.068Z,33.00
2022-09-20T14:09:59.619Z,33.20
2022-09-20T14:12:28.936Z,33.18
2022-09-20T14:14:57.312Z,33.16
2022-09-20T14:17:31.980Z,33.50
2022-09-20T14:19:59.937Z,33.41
2022-09-20T14:22:29.724Z,33.41
2022-09-20T14:25:01.019Z,33.20
2022-09-20T14:27:31.168Z,33.27
2022-09-20T14:29:59.672Z,33.67
2022-09-20T14:32:53.329Z,33.52
2022-09-20T14:35:23.149Z,33.68
2022-09-20T14:37:52.572Z,33.27
2022-09-20T14:40:31.613Z,33.26
2022-09-20T14:43:01.204Z,33.28
2022-09-20T14:45:31.984Z,33.21
2022-09-20T14:48:11.076Z,33.11
2022-09-20T14:50:41.157Z,33.13
2022-09-20T14:53:27.701Z,32.76
2022-09-20T14:56:01.745Z,32.79
2022-09-20T14:58:31.111Z,32.71
2022-09-20T15:01:05.258Z,32.74
2022-09-20T15:03:38.621Z,32.84
2022-09-20T15:06:07.799Z,32.81
2022-09-20T15:08:36.744Z,33.29
2022-09-20T15:11:05.540Z,33.34
2022-09-20T15:13:33.780Z,33.46
2022-09-20T15:16:01.910Z,33.41
2022-09-20T15:18:36.816Z,33.58
2022-09-20T15:21:05.872Z,33.74
2022-09-20T15:23:34.032Z,33.65
2022-09-20T15:26:02.080Z,33.52
2022-09-20T15:28:32.672Z,33.26
2022-09-20T15:31:00.903Z,33.18
2022-09-20T15:33:31.203Z,33.23
2022-09-20T15:36:02.476Z,33.04
2022-09-20T15:38:30.542Z,33.05
2022-09-20T15:41:01.696Z,33.03
2022-09-20T15:43:31.020Z,33.00
2022-09-20T15:46:01.862Z,32.98
2022-09-20T15:48:31.128Z,32.92
2022-09-20T15:51:06.734Z,32.84
2022-09-20T15:53:36.578Z,32.83
2022-09-20T15:56:06.791Z,32.57
2022-09-20T15:58:36.645Z,32.62
2022-09-20T16:01:06.418Z,32.44
2022-09-20T16:03:34.546Z,32.24
2022-09-20T16:06:05.879Z,32.26
2022-09-20T16:08:34.815Z,31.86
2022-09-20T16:11:03.112Z,31.78
2022-09-20T16:13:31.048Z,31.75
2022-09-20T16:16:00.017Z,32.00
2022-09-20T16:18:46.016Z,31.52
2022-09-20T16:21:17.066Z,31.73
2022-09-20T16:23:48.501Z,31.59
2022-09-20T16:26:16.819Z,31.56
2022-09-20T16:28:47.486Z,31.78
2022-09-20T16:31:34.878Z,31.57
2022-09-20T16:34:04.026Z,31.53
2022-09-20T16:36:33.419Z,31.63
2022-09-20T16:39:01.551Z,31.74
2022-09-20T16:41:30.294Z,32.60
2022-09-20T16:43:58.240Z,32.66
2022-09-20T16:46:27.582Z,33.10
2022-09-20T16:49:00.948Z,33.26
2022-09-20T16:51:34.329Z,33.33
2022-09-20T16:54:03.473Z,33.48
2022-09-20T16:56:33.932Z,33.18
2022-09-20T16:59:02.311Z,33.32
2022-09-20T17:01:31.784Z,33.19
2022-09-20T17:04:00.083Z,33.25
2022-09-20T17:06:28.885Z,33.08
2022-09-20T17:08:59.185Z,33.17
2022-09-20T17:11:30.075Z,33.76
2022-09-20T17:13:58.617Z,33.27
2022-09-20T17:16:28.455Z,33.37
2022-09-20T17:18:58.329Z,33.39
2022-09-20T17:21:27.588Z,33.84
2022-09-20T17:23:56.848Z,33.67
2022-09-20T17:26:27.784Z,33.43
2022-09-20T17:28:58.389Z,33.73
2022-09-20T17:31:33.889Z,33.64
2022-09-20T17:34:02.483Z,33.54
2022-09-20T17:36:32.008Z,33.74
2022-09-20T17:39:04.527Z,33.63
2022-09-20T17:41:36.581Z,33.38
2022-09-20T17:44:08.078Z,33.67
2022-09-20T17:46:37.569Z,33.32
2022-09-20T17:49:07.698Z,33.70
2022-09-20T17:51:38.153Z,33.59
2022-09-20T17:54:06.646Z,33.43
2022-09-20T17:56:36.622Z,33.66
2022-09-20T17:59:06.381Z,33.34
2022-09-20T18:01:37.003Z,33.82
2022-09-20T18:04:06.710Z,33.65
2022-09-20T18:06:36.833Z,33.79
2022-09-20T18:09:06.927Z,33.56
2022-09-20T18:11:37.660Z,33.58
2022-09-20T18:14:07.368Z,33.75
2022-09-20T18:16:37.160Z,33.52
2022-09-20T18:19:05.812Z,33.93
2022-09-20T18:21:35.500Z,33.55
2022-09-20T18:24:06.137Z,33.67
2022-09-20T18:26:34.363Z,33.62
2022-09-20T18:29:06.542Z,33.78
2022-09-20T18:31:37.042Z,33.64
2022-09-20T18:34:06.850Z,33.65
2022-09-20T18:36:38.435Z,33.68
2022-09-20T18:39:07.594Z,34.04
2022-09-20T18:41:37.698Z,34.04
2022-09-20T18:44:08.746Z,34.13
2022-09-20T18:46:38.803Z,34.08
2022-09-20T18:49:09.634Z,34.22
2022-09-20T18:51:40.363Z,33.93
2022-09-20T18:54:10.428Z,33.77
2022-09-20T18:56:40.487Z,33.76
2022-09-20T18:59:16.722Z,34.16
2022-09-20T19:02:13.507Z,34.63
2022-09-20T19:05:01.425Z,35.20
2022-09-20T19:07:39.181Z,35.36
2022-09-20T19:10:20.670Z,35.59
2022-09-20T19:12:58.531Z,35.56
2022-09-20T19:15:49.200Z,35.45
2022-09-20T19:18:41.776Z,35.21
2022-09-20T19:21:22.145Z,35.41
2022-09-20T19:24:07.628Z,35.23
2022-09-20T19:26:38.605Z,35.21
2022-09-20T19:29:18.548Z,35.05
2022-09-20T19:31:50.589Z,34.67
2022-09-20T19:34:21.543Z,34.94
2022-09-20T19:37:03.359Z,34.53
2022-09-20T19:39:39.897Z,34.95
2022-09-20T19:42:16.611Z,34.61
2022-09-20T19:44:56.961Z,34.83
2022-09-20T19:47:38.291Z,34.88
2022-09-20T19:50:16.327Z,34.88
2022-09-20T19:52:45.024Z,34.66
2022-09-20T19:55:14.543Z,34.87
2022-09-20T19:57:46.961Z,34.57
2022-09-20T20:00:16.892Z,34.56
2022-09-20T20:02:46.887Z,34.76
2022-09-20T20:05:17.769Z,34.61
2022-09-20T20:07:52.018Z,34.60
2022-09-20T20:10:28.060Z,34.61
2022-09-20T20:13:02.543Z,34.37
2022-09-20T20:15:40.321Z,34.41
2022-09-20T20:18:21.093Z,34.84
2022-09-20T20:20:50.982Z,34.47
2022-09-20T20:23:51.463Z,34.35
2022-09-20T20:26:23.421Z,34.33
2022-09-20T20:28:52.530Z,34.73
2022-09-20T20:31:20.997Z,34.31
2022-09-20T20:33:50.577Z,34.44
2022-09-20T20:36:18.689Z,34.80
2022-09-20T20:38:49.958Z,34.58
2022-09-20T20:41:20.446Z,34.53
2022-09-20T20:43:52.882Z,34.85
2022-09-20T20:46:20.853Z,34.77
2022-09-20T20:48:50.337Z,34.49
2022-09-20T20:51:19.848Z,34.61
2022-09-20T20:53:50.063Z,34.71
2022-09-20T20:56:19.939Z,34.58
2022-09-20T20:58:49.005Z,34.72
2022-09-20T21:01:18.825Z,34.57
2022-09-20T21:03:48.500Z,34.61
2022-09-20T21:06:18.063Z,34.41
2022-09-20T21:08:49.588Z,34.61
2022-09-20T21:11:21.917Z,34.46
2022-09-20T21:13:50.347Z,34.91
2022-09-20T21:16:20.744Z,34.85
2022-09-20T21:18:49.749Z,34.64
2022-09-20T21:21:21.103Z,34.93
2022-09-20T21:23:50.789Z,34.67
2022-09-20T21:26:19.781Z,34.87
2022-09-20T21:28:52.124Z,34.53
2022-09-20T21:31:21.611Z,34.48
2022-09-20T21:33:49.718Z,34.85
2022-09-20T21:36:20.893Z,34.72
2022-09-20T21:38:49.057Z,34.63
2022-09-20T21:41:18.797Z,34.45
2022-09-20T21:43:48.900Z,34.41
2022-09-20T21:46:18.950Z,34.51
2022-09-20T21:48:48.457Z,34.60
2022-09-20T21:51:20.402Z,34.50
2022-09-20T21:53:49.443Z,34.43
2022-09-20T21:56:18.529Z,34.74
2022-09-20T21:58:46.988Z,34.64
2022-09-20T22:01:17.465Z,34.18
2022-09-20T22:03:46.832Z,34.19
2022-09-20T22:06:17.325Z,34.42
2022-09-20T22:08:49.826Z,34.06
2022-09-20T22:11:18.764Z,34.24
2022-09-20T22:13:48.485Z,34.32
2022-09-20T22:16:17.998Z,34.17
2022-09-20T22:18:46.884Z,34.03
2022-09-20T22:21:16.856Z,34.46
2022-09-20T22:23:45.124Z,34.16
2022-09-20T22:26:16.286Z,33.96
2022-09-20T22:28:44.759Z,34.10
2022-09-20T22:31:14.389Z,34.17
2022-09-20T22:33:43.912Z,34.10
2022-09-20T22:36:14.132Z,34.31
2022-09-20T22:38:42.398Z,34.16
2022-09-20T22:41:11.499Z,34.20
2022-09-20T22:43:41.817Z,34.22
2022-09-20T22:46:11.563Z,34.19
2022-09-20T22:48:40.059Z,33.87
2022-09-20T22:51:10.187Z,34.30
2022-09-20T22:53:38.670Z,34.36
2022-09-20T22:56:08.464Z,34.27
2022-09-20T22:58:37.891Z,34.33
2022-09-20T23:01:12.348Z,34.10
2022-09-20T23:03:41.635Z,34.32
2022-09-20T23:06:14.612Z,34.59
2022-09-20T23:08:42.871Z,34.61
2022-09-20T23:11:10.802Z,34.28
2022-09-20T23:13:39.283Z,34.31
2022-09-20T23:16:18.148Z,34.16
2022-09-20T23:18:46.439Z,34.31
2022-09-20T23:21:14.821Z,34.36
2022-09-20T23:23:43.254Z,34.22
2022-09-20T23:26:13.082Z,34.31
2022-09-20T23:28:42.547Z,34.24
2022-09-20T23:31:12.715Z,34.38
2022-09-20T23:33:48.336Z,34.12
2022-09-20T23:36:17.592Z,34.35
2022-09-20T23:38:45.888Z,34.21
2022-09-20T23:41:15.852Z,34.29
2022-09-20T23:43:44.207Z,34.10
2022-09-20T23:46:13.808Z,33.97
2022-09-20T23:48:43.479Z,33.95
2022-09-20T23:51:14.132Z,33.79
2022-09-20T23:53:42.815Z,34.17
2022-09-20T23:56:11.846Z,33.99
2022-09-20T23:58:40.952Z,33.82
